sensor_id;sensor_type;location;lat;lon;timestamp;temperature;humidity
73586;DHT22;61865;50.232;18.614;2022-12-13T00:00:16;-2.90;99.90
73586;DHT22;61865;50.232;18.614;2022-12-13T00:02:39;-2.90;99.90
73586;DHT22;61865;50.232;18.614;2022-12-13T00:05:01;-2.90;99.90
73586;DHT22;61865;50.232;18.614;2022-12-13T00:07:23;-2.80;99.90
73586;DHT22;61865;50.232;18.614;2022-12-13T00:09:45;-2.80;99.90
73586;DHT22;61865;50.232;18.614;2022-12-13T00:12:09;-2.80;99.90
73586;DHT22;61865;50.232;18.614;2022-12-13T00:14:31;-2.80;99.90
73586;DHT22;61865;50.232;18.614;2022-12-13T00:16:53;-2.80;99.90
73586;DHT22;61865;50.232;18.614;2022-12-13T00:19:16;-2.80;99.90
73586;DHT22;61865;50.232;18.614;2022-12-13T00:21:38;-2.80;99.90
73586;DHT22;61865;50.232;18.614;2022-12-13T00:24:00;-2.80;99.90
73586;DHT22;61865;50.232;18.614;2022-12-13T00:26:24;-2.80;99.90
73586;DHT22;61865;50.232;18.614;2022-12-13T00:28:48;-2.90;99.90
73586;DHT22;61865;50.232;18.614;2022-12-13T00:31:10;-2.90;99.90
73586;DHT22;61865;50.232;18.614;2022-12-13T00:33:32;-2.90;99.90
73586;DHT22;61865;50.232;18.614;2022-12-13T00:35:55;-2.80;99.90
73586;DHT22;61865;50.232;18.614;2022-12-13T00:38:17;-2.90;99.90
73586;DHT22;61865;50.232;18.614;2022-12-13T00:40:39;-2.90;99.90
73586;DHT22;61865;50.232;18.614;2022-12-13T00:43:00;-2.90;99.90
73586;DHT22;61865;50.232;18.614;2022-12-13T00:45:24;-2.90;99.90
73586;DHT22;61865;50.232;18.614;2022-12-13T00:47:45;-2.90;99.90
73586;DHT22;61865;50.232;18.614;2022-12-13T00:50:08;-3.00;99.90
73586;DHT22;61865;50.232;18.614;2022-12-13T00:52:30;-2.90;99.90
73586;DHT22;61865;50.232;18.614;2022-12-13T00:54:52;-3.00;99.90
73586;DHT22;61865;50.232;18.614;2022-12-13T00:57:14;-3.00;99.90
73586;DHT22;61865;50.232;18.614;2022-12-13T00:59:36;-2.90;99.90
73586;DHT22;61865;50.232;18.614;2022-12-13T01:01:59;-2.90;99.90
73586;DHT22;61865;50.232;18.614;2022-12-13T01:04:21;-2.90;99.90
73586;DHT22;61865;50.232;18.614;2022-12-13T01:06:44;-2.90;99.90
73586;DHT22;61865;50.232;18.614;2022-12-13T01:09:14;-2.80;99.90
73586;DHT22;61865;50.232;18.614;2022-12-13T01:11:37;-2.90;99.90
73586;DHT22;61865;50.232;18.614;2022-12-13T01:13:59;-2.80;99.90
73586;DHT22;61865;50.232;18.614;2022-12-13T01:16:21;-2.80;99.90
73586;DHT22;61865;50.232;18.614;2022-12-13T01:18:44;-2.80;99.90
73586;DHT22;61865;50.232;18.614;2022-12-13T01:21:09;-2.80;99.90
73586;DHT22;61865;50.232;18.614;2022-12-13T01:23:32;-2.90;99.90
73586;DHT22;61865;50.232;18.614;2022-12-13T01:25:55;-2.90;99.90
73586;DHT22;61865;50.232;18.614;2022-12-13T01:28:17;-2.90;99.90
73586;DHT22;61865;50.232;18.614;2022-12-13T01:30:39;-2.90;99.90
73586;DHT22;61865;50.232;18.614;2022-12-13T01:33:00;-2.90;99.90
73586;DHT22;61865;50.232;18.614;2022-12-13T01:35:24;-2.90;99.90
73586;DHT22;61865;50.232;18.614;2022-12-13T01:37:46;-2.80;99.90
73586;DHT22;61865;50.232;18.614;2022-12-13T01:40:09;-2.90;99.90
73586;DHT22;61865;50.232;18.614;2022-12-13T01:42:31;-2.90;99.90
73586;DHT22;61865;50.232;18.614;2022-12-13T01:45:00;-2.90;99.90
73586;DHT22;61865;50.232;18.614;2022-12-13T01:47:25;-2.80;99.90
73586;DHT22;61865;50.232;18.614;2022-12-13T01:49:49;-2.80;99.90
73586;DHT22;61865;50.232;18.614;2022-12-13T01:52:13;-2.90;99.90
73586;DHT22;61865;50.232;18.614;2022-12-13T01:54:38;-2.80;99.90
73586;DHT22;61865;50.232;18.614;2022-12-13T01:57:03;-2.80;99.90
73586;DHT22;61865;50.232;18.614;2022-12-13T01:59:26;-2.80;99.90
73586;DHT22;61865;50.232;18.614;2022-12-13T02:01:49;-2.90;99.90
73586;DHT22;61865;50.232;18.614;2022-12-13T02:04:12;-2.90;99.90
73586;DHT22;61865;50.232;18.614;2022-12-13T02:06:35;-2.90;99.90
73586;DHT22;61865;50.232;18.614;2022-12-13T02:08:59;-2.90;99.90
73586;DHT22;61865;50.232;18.614;2022-12-13T02:11:22;-2.80;99.90
73586;DHT22;61865;50.232;18.614;2022-12-13T02:13:43;-3.00;99.90
73586;DHT22;61865;50.232;18.614;2022-12-13T02:16:09;-2.90;99.90
73586;DHT22;61865;50.232;18.614;2022-12-13T02:18:45;-2.90;99.90
73586;DHT22;61865;50.232;18.614;2022-12-13T02:21:17;-2.90;99.90
73586;DHT22;61865;50.232;18.614;2022-12-13T02:24:18;-2.90;99.90
73586;DHT22;61865;50.232;18.614;2022-12-13T02:26:58;-2.90;99.90
73586;DHT22;61865;50.232;18.614;2022-12-13T02:32:24;-2.90;99.90
73586;DHT22;61865;50.232;18.614;2022-12-13T02:34:53;-2.80;99.90
73586;DHT22;61865;50.232;18.614;2022-12-13T02:37:21;-2.80;99.90
73586;DHT22;61865;50.232;18.614;2022-12-13T02:39:50;-2.80;99.90
73586;DHT22;61865;50.232;18.614;2022-12-13T02:42:18;-2.90;99.90
73586;DHT22;61865;50.232;18.614;2022-12-13T02:44:46;-2.80;99.90
73586;DHT22;61865;50.232;18.614;2022-12-13T02:47:12;-2.80;99.90
73586;DHT22;61865;50.232;18.614;2022-12-13T02:49:38;-2.80;99.90
73586;DHT22;61865;50.232;18.614;2022-12-13T02:52:02;-2.80;99.90
73586;DHT22;61865;50.232;18.614;2022-12-13T02:54:26;-2.80;99.90
73586;DHT22;61865;50.232;18.614;2022-12-13T02:56:55;-2.70;99.90
73586;DHT22;61865;50.232;18.614;2022-12-13T02:59:17;-2.80;99.90
73586;DHT22;61865;50.232;18.614;2022-12-13T03:01:47;-2.60;99.90
73586;DHT22;61865;50.232;18.614;2022-12-13T03:04:19;-2.60;99.90
73586;DHT22;61865;50.232;18.614;2022-12-13T03:06:54;-2.60;99.90
73586;DHT22;61865;50.232;18.614;2022-12-13T03:09:28;-2.60;99.90
73586;DHT22;61865;50.232;18.614;2022-12-13T03:12:02;-2.60;99.90
73586;DHT22;61865;50.232;18.614;2022-12-13T03:14:53;-2.60;99.90
73586;DHT22;61865;50.232;18.614;2022-12-13T03:17:18;-2.60;99.90
73586;DHT22;61865;50.232;18.614;2022-12-13T03:19:41;-2.60;99.90
73586;DHT22;61865;50.232;18.614;2022-12-13T03:22:05;-2.70;99.90
73586;DHT22;61865;50.232;18.614;2022-12-13T03:24:27;-2.50;99.90
73586;DHT22;61865;50.232;18.614;2022-12-13T03:26:50;-2.50;99.90
73586;DHT22;61865;50.232;18.614;2022-12-13T03:29:13;-2.40;99.90
73586;DHT22;61865;50.232;18.614;2022-12-13T03:31:34;-2.40;99.90
73586;DHT22;61865;50.232;18.614;2022-12-13T03:33:56;-2.40;99.90
73586;DHT22;61865;50.232;18.614;2022-12-13T03:36:19;-2.50;99.90
73586;DHT22;61865;50.232;18.614;2022-12-13T03:38:42;-2.40;99.90
73586;DHT22;61865;50.232;18.614;2022-12-13T03:41:06;-2.40;99.90
73586;DHT22;61865;50.232;18.614;2022-12-13T03:43:29;-2.30;99.90
73586;DHT22;61865;50.232;18.614;2022-12-13T03:45:52;-2.40;99.90
73586;DHT22;61865;50.232;18.614;2022-12-13T03:48:14;-2.40;99.90
73586;DHT22;61865;50.232;18.614;2022-12-13T03:50:36;-2.40;99.90
73586;DHT22;61865;50.232;18.614;2022-12-13T03:52:58;-2.50;99.90
73586;DHT22;61865;50.232;18.614;2022-12-13T03:55:21;-2.50;99.90
73586;DHT22;61865;50.232;18.614;2022-12-13T03:57:43;-2.40;99.90
73586;DHT22;61865;50.232;18.614;2022-12-13T04:00:06;-2.40;99.90
73586;DHT22;61865;50.232;18.614;2022-12-13T04:02:28;-2.50;99.90
73586;DHT22;61865;50.232;18.614;2022-12-13T04:04:50;-2.50;99.90
73586;DHT22;61865;50.232;18.614;2022-12-13T04:07:12;-2.60;99.90
73586;DHT22;61865;50.232;18.614;2022-12-13T04:09:34;-2.50;99.90
73586;DHT22;61865;50.232;18.614;2022-12-13T04:11:57;-2.50;99.90
73586;DHT22;61865;50.232;18.614;2022-12-13T04:14:37;-2.40;99.90
73586;DHT22;61865;50.232;18.614;2022-12-13T04:16:59;-2.50;99.90
73586;DHT22;61865;50.232;18.614;2022-12-13T04:19:21;-2.50;99.90
73586;DHT22;61865;50.232;18.614;2022-12-13T04:21:43;-2.50;99.90
73586;DHT22;61865;50.232;18.614;2022-12-13T04:24:05;-2.60;99.90
73586;DHT22;61865;50.232;18.614;2022-12-13T04:26:27;-2.50;99.90
73586;DHT22;61865;50.232;18.614;2022-12-13T04:28:50;-2.60;99.90
73586;DHT22;61865;50.232;18.614;2022-12-13T04:31:12;-2.50;99.90
73586;DHT22;61865;50.232;18.614;2022-12-13T04:33:34;-2.40;99.90
73586;DHT22;61865;50.232;18.614;2022-12-13T04:35:56;-2.50;99.90
73586;DHT22;61865;50.232;18.614;2022-12-13T04:38:18;-2.60;99.90
73586;DHT22;61865;50.232;18.614;2022-12-13T04:40:40;-2.60;99.90
73586;DHT22;61865;50.232;18.614;2022-12-13T04:43:02;-2.60;99.90
73586;DHT22;61865;50.232;18.614;2022-12-13T04:45:26;-2.60;99.90
73586;DHT22;61865;50.232;18.614;2022-12-13T04:47:48;-2.60;99.90
73586;DHT22;61865;50.232;18.614;2022-12-13T04:50:10;-2.60;99.90
73586;DHT22;61865;50.232;18.614;2022-12-13T04:52:32;-2.60;99.90
73586;DHT22;61865;50.232;18.614;2022-12-13T04:54:54;-2.60;99.90
73586;DHT22;61865;50.232;18.614;2022-12-13T04:57:16;-2.50;99.90
73586;DHT22;61865;50.232;18.614;2022-12-13T04:59:38;-2.60;99.90
73586;DHT22;61865;50.232;18.614;2022-12-13T05:02:02;-2.60;99.90
73586;DHT22;61865;50.232;18.614;2022-12-13T05:04:25;-2.50;99.90
73586;DHT22;61865;50.232;18.614;2022-12-13T05:06:47;-2.60;99.90
73586;DHT22;61865;50.232;18.614;2022-12-13T05:09:09;-2.60;99.90
73586;DHT22;61865;50.232;18.614;2022-12-13T05:11:31;-2.60;99.90
73586;DHT22;61865;50.232;18.614;2022-12-13T05:13:53;-2.60;99.90
73586;DHT22;61865;50.232;18.614;2022-12-13T05:16:14;-2.70;99.90
73586;DHT22;61865;50.232;18.614;2022-12-13T05:18:38;-2.70;99.90
73586;DHT22;61865;50.232;18.614;2022-12-13T05:21:01;-2.70;99.90
73586;DHT22;61865;50.232;18.614;2022-12-13T05:23:23;-2.60;99.90
73586;DHT22;61865;50.232;18.614;2022-12-13T05:25:45;-2.70;99.90
73586;DHT22;61865;50.232;18.614;2022-12-13T05:28:07;-2.80;99.90
73586;DHT22;61865;50.232;18.614;2022-12-13T05:30:29;-2.90;99.90
73586;DHT22;61865;50.232;18.614;2022-12-13T05:32:51;-2.90;99.90
73586;DHT22;61865;50.232;18.614;2022-12-13T05:35:15;-2.80;99.90
73586;DHT22;61865;50.232;18.614;2022-12-13T05:37:37;-2.80;99.90
73586;DHT22;61865;50.232;18.614;2022-12-13T05:39:59;-2.70;99.90
73586;DHT22;61865;50.232;18.614;2022-12-13T05:42:21;-2.70;99.90
73586;DHT22;61865;50.232;18.614;2022-12-13T05:44:43;-2.70;99.90
73586;DHT22;61865;50.232;18.614;2022-12-13T05:47:05;-2.80;99.90
73586;DHT22;61865;50.232;18.614;2022-12-13T05:49:27;-2.80;99.90
73586;DHT22;61865;50.232;18.614;2022-12-13T05:51:50;-2.70;99.90
73586;DHT22;61865;50.232;18.614;2022-12-13T05:54:12;-2.80;99.90
73586;DHT22;61865;50.232;18.614;2022-12-13T05:56:34;-2.80;99.90
73586;DHT22;61865;50.232;18.614;2022-12-13T05:58:56;-2.80;99.90
73586;DHT22;61865;50.232;18.614;2022-12-13T06:01:17;-2.80;99.90
73586;DHT22;61865;50.232;18.614;2022-12-13T06:03:40;-2.80;99.90
73586;DHT22;61865;50.232;18.614;2022-12-13T06:06:02;-2.80;99.90
73586;DHT22;61865;50.232;18.614;2022-12-13T06:08:25;-2.70;99.90
73586;DHT22;61865;50.232;18.614;2022-12-13T06:10:53;-2.60;99.90
73586;DHT22;61865;50.232;18.614;2022-12-13T06:13:15;-2.70;99.90
73586;DHT22;61865;50.232;18.614;2022-12-13T06:15:37;-2.80;99.90
73586;DHT22;61865;50.232;18.614;2022-12-13T06:17:59;-2.80;99.90
73586;DHT22;61865;50.232;18.614;2022-12-13T06:20:21;-2.90;99.90
73586;DHT22;61865;50.232;18.614;2022-12-13T06:22:43;-2.90;99.90
73586;DHT22;61865;50.232;18.614;2022-12-13T06:25:07;-2.80;99.90
73586;DHT22;61865;50.232;18.614;2022-12-13T06:27:29;-2.70;99.90
73586;DHT22;61865;50.232;18.614;2022-12-13T06:29:50;-2.70;99.90
73586;DHT22;61865;50.232;18.614;2022-12-13T06:32:12;-2.70;99.90
73586;DHT22;61865;50.232;18.614;2022-12-13T06:34:35;-2.70;99.90
73586;DHT22;61865;50.232;18.614;2022-12-13T06:36:57;-2.60;99.90
73586;DHT22;61865;50.232;18.614;2022-12-13T06:39:19;-2.80;99.90
73586;DHT22;61865;50.232;18.614;2022-12-13T06:41:43;-2.70;99.90
73586;DHT22;61865;50.232;18.614;2022-12-13T06:44:05;-2.80;99.90
73586;DHT22;61865;50.232;18.614;2022-12-13T06:46:27;-2.70;99.90
73586;DHT22;61865;50.232;18.614;2022-12-13T06:48:50;-2.70;99.90
73586;DHT22;61865;50.232;18.614;2022-12-13T06:51:15;-2.70;99.90
73586;DHT22;61865;50.232;18.614;2022-12-13T06:53:38;-2.80;99.90
73586;DHT22;61865;50.232;18.614;2022-12-13T06:56:02;-2.70;99.90
73586;DHT22;61865;50.232;18.614;2022-12-13T06:58:25;-2.80;99.90
73586;DHT22;61865;50.232;18.614;2022-12-13T07:00:47;-2.70;99.90
73586;DHT22;61865;50.232;18.614;2022-12-13T07:03:12;-2.70;99.90
73586;DHT22;61865;50.232;18.614;2022-12-13T07:05:36;-2.70;99.90
73586;DHT22;61865;50.232;18.614;2022-12-13T07:07:58;-2.60;99.90
73586;DHT22;61865;50.232;18.614;2022-12-13T07:10:20;-2.50;99.90
73586;DHT22;61865;50.232;18.614;2022-12-13T07:12:42;-2.50;99.90
73586;DHT22;61865;50.232;18.614;2022-12-13T07:15:07;-2.60;99.90
73586;DHT22;61865;50.232;18.614;2022-12-13T07:17:29;-2.50;99.90
73586;DHT22;61865;50.232;18.614;2022-12-13T07:19:51;-2.40;99.90
73586;DHT22;61865;50.232;18.614;2022-12-13T07:22:13;-2.40;99.90
73586;DHT22;61865;50.232;18.614;2022-12-13T07:24:35;-2.50;99.90
73586;DHT22;61865;50.232;18.614;2022-12-13T07:26:57;-2.60;99.90
73586;DHT22;61865;50.232;18.614;2022-12-13T07:29:19;-2.70;99.90
73586;DHT22;61865;50.232;18.614;2022-12-13T07:31:43;-2.70;99.90
73586;DHT22;61865;50.232;18.614;2022-12-13T07:34:04;-2.70;99.90
73586;DHT22;61865;50.232;18.614;2022-12-13T07:36:27;-2.80;99.90
73586;DHT22;61865;50.232;18.614;2022-12-13T07:38:53;-2.80;99.90
73586;DHT22;61865;50.232;18.614;2022-12-13T07:41:15;-2.80;99.90
73586;DHT22;61865;50.232;18.614;2022-12-13T07:43:37;-2.90;99.90
73586;DHT22;61865;50.232;18.614;2022-12-13T07:45:59;-2.90;99.90
73586;DHT22;61865;50.232;18.614;2022-12-13T07:48:23;-2.90;99.90
73586;DHT22;61865;50.232;18.614;2022-12-13T07:50:45;-2.90;99.90
73586;DHT22;61865;50.232;18.614;2022-12-13T07:53:07;-2.90;99.90
73586;DHT22;61865;50.232;18.614;2022-12-13T07:55:29;-2.90;99.90
73586;DHT22;61865;50.232;18.614;2022-12-13T07:57:51;-3.00;99.90
73586;DHT22;61865;50.232;18.614;2022-12-13T08:00:14;-3.00;99.90
73586;DHT22;61865;50.232;18.614;2022-12-13T08:02:36;-3.00;99.90
73586;DHT22;61865;50.232;18.614;2022-12-13T08:04:59;-3.00;99.90
73586;DHT22;61865;50.232;18.614;2022-12-13T08:07:21;-2.90;99.90
73586;DHT22;61865;50.232;18.614;2022-12-13T08:09:43;-3.00;99.90
73586;DHT22;61865;50.232;18.614;2022-12-13T08:12:05;-3.00;99.90
73586;DHT22;61865;50.232;18.614;2022-12-13T08:14:28;-2.90;99.90
73586;DHT22;61865;50.232;18.614;2022-12-13T08:16:49;-2.90;99.90
73586;DHT22;61865;50.232;18.614;2022-12-13T08:19:11;-2.90;99.90
73586;DHT22;61865;50.232;18.614;2022-12-13T08:21:36;-2.90;99.90
73586;DHT22;61865;50.232;18.614;2022-12-13T08:23:58;-2.90;99.90
73586;DHT22;61865;50.232;18.614;2022-12-13T08:26:22;-3.00;99.90
73586;DHT22;61865;50.232;18.614;2022-12-13T08:28:44;-2.90;99.90
73586;DHT22;61865;50.232;18.614;2022-12-13T08:31:08;-2.90;99.90
73586;DHT22;61865;50.232;18.614;2022-12-13T08:33:32;-2.90;99.90
73586;DHT22;61865;50.232;18.614;2022-12-13T08:35:54;-2.90;99.90
73586;DHT22;61865;50.232;18.614;2022-12-13T08:38:18;-2.90;99.90
73586;DHT22;61865;50.232;18.614;2022-12-13T08:40:40;-3.00;99.90
73586;DHT22;61865;50.232;18.614;2022-12-13T08:43:02;-3.00;99.90
73586;DHT22;61865;50.232;18.614;2022-12-13T08:45:24;-3.10;99.90
73586;DHT22;61865;50.232;18.614;2022-12-13T08:47:46;-3.10;99.90
73586;DHT22;61865;50.232;18.614;2022-12-13T08:50:08;-3.00;99.90
73586;DHT22;61865;50.232;18.614;2022-12-13T08:52:31;-2.90;99.90
73586;DHT22;61865;50.232;18.614;2022-12-13T08:54:54;-2.80;99.90
73586;DHT22;61865;50.232;18.614;2022-12-13T08:57:16;-2.90;99.90
73586;DHT22;61865;50.232;18.614;2022-12-13T08:59:38;-2.90;99.90
73586;DHT22;61865;50.232;18.614;2022-12-13T09:02:00;-2.80;99.90
73586;DHT22;61865;50.232;18.614;2022-12-13T09:04:22;-2.90;99.90
73586;DHT22;61865;50.232;18.614;2022-12-13T09:06:44;-2.80;99.90
73586;DHT22;61865;50.232;18.614;2022-12-13T09:09:06;-2.80;99.90
73586;DHT22;61865;50.232;18.614;2022-12-13T09:11:29;-2.80;99.90
73586;DHT22;61865;50.232;18.614;2022-12-13T09:13:51;-2.80;99.90
73586;DHT22;61865;50.232;18.614;2022-12-13T09:16:14;-2.70;99.90
73586;DHT22;61865;50.232;18.614;2022-12-13T09:18:37;-2.70;99.90
73586;DHT22;61865;50.232;18.614;2022-12-13T09:21:05;-2.70;99.90
73586;DHT22;61865;50.232;18.614;2022-12-13T09:23:27;-2.60;99.90
73586;DHT22;61865;50.232;18.614;2022-12-13T09:25:52;-2.50;99.90
73586;DHT22;61865;50.232;18.614;2022-12-13T09:28:17;-2.50;99.90
73586;DHT22;61865;50.232;18.614;2022-12-13T09:30:39;-2.50;99.90
73586;DHT22;61865;50.232;18.614;2022-12-13T09:33:03;-2.40;99.90
73586;DHT22;61865;50.232;18.614;2022-12-13T09:35:25;-2.30;99.90
73586;DHT22;61865;50.232;18.614;2022-12-13T09:37:47;-2.30;99.90
73586;DHT22;61865;50.232;18.614;2022-12-13T09:40:12;-2.30;99.90
73586;DHT22;61865;50.232;18.614;2022-12-13T09:42:40;-2.20;99.90
73586;DHT22;61865;50.232;18.614;2022-12-13T09:45:08;-2.30;99.90
73586;DHT22;61865;50.232;18.614;2022-12-13T09:47:35;-2.20;99.90
73586;DHT22;61865;50.232;18.614;2022-12-13T09:49:59;-2.30;99.90
73586;DHT22;61865;50.232;18.614;2022-12-13T09:52:23;-2.20;99.90
73586;DHT22;61865;50.232;18.614;2022-12-13T09:54:46;-2.20;99.90
73586;DHT22;61865;50.232;18.614;2022-12-13T09:57:14;-2.20;99.90
73586;DHT22;61865;50.232;18.614;2022-12-13T09:59:37;-2.20;99.90
73586;DHT22;61865;50.232;18.614;2022-12-13T10:02:14;-2.10;99.90
73586;DHT22;61865;50.232;18.614;2022-12-13T10:04:36;-2.00;99.90
73586;DHT22;61865;50.232;18.614;2022-12-13T10:06:58;-1.80;99.90
73586;DHT22;61865;50.232;18.614;2022-12-13T10:09:21;-1.60;99.90
73586;DHT22;61865;50.232;18.614;2022-12-13T10:11:48;-1.40;99.90
73586;DHT22;61865;50.232;18.614;2022-12-13T10:14:13;-1.30;99.90
73586;DHT22;61865;50.232;18.614;2022-12-13T10:16:42;-1.20;99.90
73586;DHT22;61865;50.232;18.614;2022-12-13T10:19:15;-1.10;99.90
73586;DHT22;61865;50.232;18.614;2022-12-13T10:21:40;-1.00;99.90
73586;DHT22;61865;50.232;18.614;2022-12-13T10:24:10;-1.10;99.90
73586;DHT22;61865;50.232;18.614;2022-12-13T10:26:35;-1.30;99.90
73586;DHT22;61865;50.232;18.614;2022-12-13T10:29:01;-1.30;99.90
73586;DHT22;61865;50.232;18.614;2022-12-13T10:31:25;-1.30;99.90
73586;DHT22;61865;50.232;18.614;2022-12-13T10:33:53;-1.30;99.90
73586;DHT22;61865;50.232;18.614;2022-12-13T10:36:31;-1.00;99.90
73586;DHT22;61865;50.232;18.614;2022-12-13T10:38:53;-0.90;99.90
73586;DHT22;61865;50.232;18.614;2022-12-13T10:41:32;-0.90;99.90
73586;DHT22;61865;50.232;18.614;2022-12-13T10:44:10;-1.00;99.90
73586;DHT22;61865;50.232;18.614;2022-12-13T10:46:35;-1.00;99.90
73586;DHT22;61865;50.232;18.614;2022-12-13T10:48:58;-0.80;99.90
73586;DHT22;61865;50.232;18.614;2022-12-13T10:51:21;-0.70;99.90
73586;DHT22;61865;50.232;18.614;2022-12-13T10:53:46;-1.10;99.90
73586;DHT22;61865;50.232;18.614;2022-12-13T10:56:08;-1.20;99.90
73586;DHT22;61865;50.232;18.614;2022-12-13T10:58:35;-1.50;99.90
73586;DHT22;61865;50.232;18.614;2022-12-13T11:01:08;-1.60;99.90
73586;DHT22;61865;50.232;18.614;2022-12-13T11:03:32;-1.70;99.90
73586;DHT22;61865;50.232;18.614;2022-12-13T11:06:02;-1.60;99.90
73586;DHT22;61865;50.232;18.614;2022-12-13T11:08:27;-1.40;99.90
73586;DHT22;61865;50.232;18.614;2022-12-13T11:10:56;-1.40;99.90
73586;DHT22;61865;50.232;18.614;2022-12-13T11:13:23;-1.30;99.90
73586;DHT22;61865;50.232;18.614;2022-12-13T11:15:53;-1.40;99.90
73586;DHT22;61865;50.232;18.614;2022-12-13T11:18:20;-1.50;99.90
73586;DHT22;61865;50.232;18.614;2022-12-13T11:20:51;-1.70;99.90
73586;DHT22;61865;50.232;18.614;2022-12-13T11:23:28;-1.80;99.90
73586;DHT22;61865;50.232;18.614;2022-12-13T11:25:54;-1.90;99.90
73586;DHT22;61865;50.232;18.614;2022-12-13T11:28:28;-2.00;99.90
73586;DHT22;61865;50.232;18.614;2022-12-13T11:31:03;-1.90;99.90
73586;DHT22;61865;50.232;18.614;2022-12-13T11:33:35;-1.90;99.90
73586;DHT22;61865;50.232;18.614;2022-12-13T11:36:10;-1.90;99.90
73586;DHT22;61865;50.232;18.614;2022-12-13T11:38:48;-1.80;99.90
73586;DHT22;61865;50.232;18.614;2022-12-13T11:41:18;-1.80;99.90
73586;DHT22;61865;50.232;18.614;2022-12-13T11:43:43;-1.80;99.90
73586;DHT22;61865;50.232;18.614;2022-12-13T11:46:13;-1.80;99.90
73586;DHT22;61865;50.232;18.614;2022-12-13T11:48:42;-1.80;99.90
73586;DHT22;61865;50.232;18.614;2022-12-13T11:51:08;-1.50;99.90
73586;DHT22;61865;50.232;18.614;2022-12-13T11:53:34;-1.20;99.90
73586;DHT22;61865;50.232;18.614;2022-12-13T11:56:04;-1.00;99.90
73586;DHT22;61865;50.232;18.614;2022-12-13T11:58:32;-0.80;99.90
73586;DHT22;61865;50.232;18.614;2022-12-13T12:01:00;-0.70;99.90
73586;DHT22;61865;50.232;18.614;2022-12-13T12:03:32;-0.60;99.90
73586;DHT22;61865;50.232;18.614;2022-12-13T12:05:59;-0.80;99.90
73586;DHT22;61865;50.232;18.614;2022-12-13T12:08:28;-0.80;99.90
73586;DHT22;61865;50.232;18.614;2022-12-13T12:11:02;-0.90;99.90
73586;DHT22;61865;50.232;18.614;2022-12-13T12:13:30;-0.80;99.90
73586;DHT22;61865;50.232;18.614;2022-12-13T12:16:00;-0.90;99.90
73586;DHT22;61865;50.232;18.614;2022-12-13T12:18:25;-0.80;99.90
73586;DHT22;61865;50.232;18.614;2022-12-13T12:21:00;-0.60;99.90
73586;DHT22;61865;50.232;18.614;2022-12-13T12:23:35;-0.60;99.90
73586;DHT22;61865;50.232;18.614;2022-12-13T12:26:05;-0.70;99.90
73586;DHT22;61865;50.232;18.614;2022-12-13T12:28:37;-0.90;99.90
73586;DHT22;61865;50.232;18.614;2022-12-13T12:31:09;-0.80;99.90
73586;DHT22;61865;50.232;18.614;2022-12-13T12:33:38;-0.80;99.90
73586;DHT22;61865;50.232;18.614;2022-12-13T12:36:12;-0.70;99.90
73586;DHT22;61865;50.232;18.614;2022-12-13T12:41:44;-0.40;99.90
73586;DHT22;61865;50.232;18.614;2022-12-13T12:44:15;-0.30;99.90
73586;DHT22;61865;50.232;18.614;2022-12-13T12:46:53;-0.30;99.90
73586;DHT22;61865;50.232;18.614;2022-12-13T12:49:36;-0.50;99.90
73586;DHT22;61865;50.232;18.614;2022-12-13T12:52:10;-0.50;99.90
73586;DHT22;61865;50.232;18.614;2022-12-13T12:54:42;-0.90;99.90
73586;DHT22;61865;50.232;18.614;2022-12-13T12:57:12;-1.00;99.90
73586;DHT22;61865;50.232;18.614;2022-12-13T12:59:43;-1.00;99.90
73586;DHT22;61865;50.232;18.614;2022-12-13T13:02:16;-1.00;99.90
73586;DHT22;61865;50.232;18.614;2022-12-13T13:04:44;-1.00;99.90
73586;DHT22;61865;50.232;18.614;2022-12-13T13:07:11;-1.10;99.90
73586;DHT22;61865;50.232;18.614;2022-12-13T13:09:34;-1.10;99.90
73586;DHT22;61865;50.232;18.614;2022-12-13T13:11:58;-1.20;99.90
73586;DHT22;61865;50.232;18.614;2022-12-13T13:14:30;-1.10;99.90
73586;DHT22;61865;50.232;18.614;2022-12-13T13:16:52;-1.20;99.90
73586;DHT22;61865;50.232;18.614;2022-12-13T13:19:40;-1.30;99.90
73586;DHT22;61865;50.232;18.614;2022-12-13T13:22:03;-1.10;99.90
73586;DHT22;61865;50.232;18.614;2022-12-13T13:24:26;-1.10;99.90
73586;DHT22;61865;50.232;18.614;2022-12-13T13:26:52;-1.00;99.90
73586;DHT22;61865;50.232;18.614;2022-12-13T13:29:33;-0.90;99.90
73586;DHT22;61865;50.232;18.614;2022-12-13T13:31:57;-0.80;99.90
73586;DHT22;61865;50.232;18.614;2022-12-13T13:34:22;-0.90;99.90
73586;DHT22;61865;50.232;18.614;2022-12-13T13:36:45;-1.00;99.90
73586;DHT22;61865;50.232;18.614;2022-12-13T13:39:14;-1.10;99.90
73586;DHT22;61865;50.232;18.614;2022-12-13T13:42:07;-1.20;99.90
73586;DHT22;61865;50.232;18.614;2022-12-13T13:44:34;-1.30;99.90
73586;DHT22;61865;50.232;18.614;2022-12-13T13:47:14;-1.40;99.90
73586;DHT22;61865;50.232;18.614;2022-12-13T13:49:41;-1.40;99.90
73586;DHT22;61865;50.232;18.614;2022-12-13T13:52:16;-1.50;99.90
73586;DHT22;61865;50.232;18.614;2022-12-13T13:55:05;-1.60;99.90
73586;DHT22;61865;50.232;18.614;2022-12-13T13:58:08;-1.60;99.90
73586;DHT22;61865;50.232;18.614;2022-12-13T14:03:54;-1.80;99.90
73586;DHT22;61865;50.232;18.614;2022-12-13T14:13:03;-2.30;99.90
73586;DHT22;61865;50.232;18.614;2022-12-13T14:21:42;-2.60;99.90
73586;DHT22;61865;50.232;18.614;2022-12-13T14:24:24;-2.60;99.90
73586;DHT22;61865;50.232;18.614;2022-12-13T14:27:17;-2.60;99.90
73586;DHT22;61865;50.232;18.614;2022-12-13T14:29:41;-2.70;99.90
73586;DHT22;61865;50.232;18.614;2022-12-13T14:32:08;-2.70;99.90
73586;DHT22;61865;50.232;18.614;2022-12-13T14:34:32;-2.80;99.90
73586;DHT22;61865;50.232;18.614;2022-12-13T14:36:58;-2.90;99.90
73586;DHT22;61865;50.232;18.614;2022-12-13T14:39:20;-3.10;99.90
73586;DHT22;61865;50.232;18.614;2022-12-13T14:41:45;-3.20;99.90
73586;DHT22;61865;50.232;18.614;2022-12-13T14:44:14;-3.50;99.90
73586;DHT22;61865;50.232;18.614;2022-12-13T14:46:36;-3.80;99.90
73586;DHT22;61865;50.232;18.614;2022-12-13T14:48:58;-4.00;99.90
73586;DHT22;61865;50.232;18.614;2022-12-13T14:51:31;-4.00;99.90
73586;DHT22;61865;50.232;18.614;2022-12-13T14:53:55;-4.10;99.90
73586;DHT22;61865;50.232;18.614;2022-12-13T14:56:18;-4.20;99.90
73586;DHT22;61865;50.232;18.614;2022-12-13T14:58:51;-4.20;99.90
73586;DHT22;61865;50.232;18.614;2022-12-13T15:01:24;-4.30;99.90
73586;DHT22;61865;50.232;18.614;2022-12-13T15:03:46;-4.30;99.90
73586;DHT22;61865;50.232;18.614;2022-12-13T15:06:08;-4.20;99.90
73586;DHT22;61865;50.232;18.614;2022-12-13T15:08:32;-4.00;99.90
73586;DHT22;61865;50.232;18.614;2022-12-13T15:10:59;-4.00;99.90
73586;DHT22;61865;50.232;18.614;2022-12-13T15:13:27;-3.90;99.90
73586;DHT22;61865;50.232;18.614;2022-12-13T15:15:52;-4.00;99.90
73586;DHT22;61865;50.232;18.614;2022-12-13T15:18:16;-3.90;99.90
73586;DHT22;61865;50.232;18.614;2022-12-13T15:20:40;-3.90;99.90
73586;DHT22;61865;50.232;18.614;2022-12-13T15:23:04;-3.80;99.90
73586;DHT22;61865;50.232;18.614;2022-12-13T15:25:27;-3.90;99.90